createdAt,value
2022-08-11T03:42:47.743Z,100594.50
2022-08-11T03:45:23.859Z,100586.59
2022-08-11T03:48:14.187Z,100590.97
2022-08-11T03:50:58.103Z,100594.38
2022-08-11T03:53:44.397Z,100590.75
2022-08-11T03:56:47.694Z,100598.84
2022-08-11T04:00:11.744Z,100592.13
2022-08-11T04:03:01.057Z,100588.81
2022-08-11T04:06:10.893Z,100584.22
2022-08-11T04:09:17.099Z,100578.06
2022-08-11T04:12:08.392Z,100579.97
2022-08-11T04:15:21.672Z,100578.81
2022-08-11T04:18:19.975Z,100585.84
2022-08-11T04:21:03.138Z,100586.59
2022-08-11T04:24:34.688Z,100587.34
2022-08-11T04:27:35.374Z,100583.31
2022-08-11T04:30:12.278Z,100586.38
2022-08-11T04:33:17.943Z,100589.75
2022-08-11T04:35:59.639Z,100587.34
2022-08-11T04:38:50.964Z,100590.75
2022-08-11T04:41:51.358Z,100595.94
2022-08-11T04:45:02.558Z,100589.19
2022-08-11T04:47:58.151Z,100593.41
2022-08-11T04:51:08.754Z,100598.22
2022-08-11T04:53:54.743Z,100595.16
2022-08-11T04:56:25.959Z,100585.38
2022-08-11T04:59:31.389Z,100596.78
2022-08-11T05:02:34.427Z,100583.94
2022-08-11T05:05:15.712Z,100590.59
2022-08-11T05:08:39.964Z,100591.59
2022-08-11T05:11:28.814Z,100586.25
2022-08-11T05:14:24.895Z,100592.69
2022-08-11T05:16:57.030Z,100588.78
2022-08-11T05:19:24.945Z,100582.47
2022-08-11T05:21:57.268Z,100576.88
2022-08-11T05:24:31.483Z,100571.63
2022-08-11T05:27:09.956Z,100572.84
2022-08-11T05:29:44.897Z,100577.97
2022-08-11T05:32:17.661Z,100578.69
2022-08-11T05:34:48.229Z,100570.94
2022-08-11T05:37:27.453Z,100576.66
2022-08-11T05:40:01.376Z,100568.63
2022-08-11T05:42:32.587Z,100577.34
2022-08-11T05:45:05.213Z,100574.28
2022-08-11T05:47:48.728Z,100586.22
2022-08-11T05:50:19.048Z,100585.47
2022-08-11T05:53:00.262Z,100585.22
2022-08-11T05:55:34.021Z,100580.34
2022-08-11T05:58:06.026Z,100574.50
2022-08-11T06:00:43.656Z,100563.53
2022-08-11T06:03:12.536Z,100564.88
2022-08-11T06:05:44.078Z,100567.66
2022-08-11T06:08:14.010Z,100567.81
2022-08-11T06:10:44.763Z,100570.53
2022-08-11T06:13:18.346Z,100563.25
2022-08-11T06:15:48.337Z,100562.69
2022-08-11T06:18:16.946Z,100560.50
2022-08-11T06:20:47.909Z,100540.41
2022-08-11T06:23:17.649Z,100545.88
2022-08-11T06:25:46.407Z,100538.81
2022-08-11T06:28:20.770Z,100538.78
2022-08-11T06:30:49.532Z,100540.91
2022-08-11T06:33:29.829Z,100548.56
2022-08-11T06:36:03.602Z,100545.88
2022-08-11T06:38:49.771Z,100560.22
2022-08-11T06:41:21.550Z,100561.06
2022-08-11T06:43:55.564Z,100554.84
2022-08-11T06:46:28.894Z,100558.09
2022-08-11T06:48:58.132Z,100564.63
2022-08-11T06:51:28.173Z,100574.47
2022-08-11T06:54:04.829Z,100570.25
2022-08-11T06:56:37.330Z,100577.63
2022-08-11T06:59:07.831Z,100592.47
2022-08-11T07:01:44.485Z,100595.53
2022-08-11T07:04:21.088Z,100584.09
2022-08-11T07:07:11.568Z,100589.66
2022-08-11T07:10:24.235Z,100599.03
2022-08-11T07:19:43.168Z,100584.38
2022-08-11T07:22:12.808Z,100594.97
2022-08-11T07:25:01.697Z,100595.22
2022-08-11T07:27:37.686Z,100594.97
2022-08-11T07:30:08.581Z,100601.41
2022-08-11T07:32:43.987Z,100601.19
2022-08-11T07:35:17.675Z,100597.22
2022-08-11T10:14:31.821Z,100628.41
2022-08-11T10:16:49.542Z,100634.63
2022-08-11T10:19:19.308Z,100635.31
2022-08-11T10:21:51.150Z,100635.59
2022-08-11T10:24:18.772Z,100637.31
2022-08-11T10:26:48.831Z,100634.19
2022-08-11T10:29:18.912Z,100637.72
2022-08-11T10:31:59.333Z,100637.59
2022-08-11T10:34:30.045Z,100633.78
2022-08-11T10:36:59.683Z,100627.25
2022-08-11T10:39:27.376Z,100624.59
2022-08-11T10:42:06.861Z,100614.13
2022-08-11T10:44:40.901Z,100612.59
2022-08-11T11:03:22.171Z,100632.78
2022-08-11T11:06:13.282Z,100623.16
2022-08-11T11:11:21.948Z,100629.81
2022-08-11T11:13:53.293Z,100627.25
2022-08-11T11:16:24.898Z,100633.34
2022-08-11T11:19:01.243Z,100629.25
2022-08-11T11:21:29.595Z,100627.69
2022-08-11T11:24:13.433Z,100623.44
2022-08-11T11:26:51.489Z,100624.00
2022-08-11T11:29:55.170Z,100632.34
2022-08-11T11:32:32.353Z,100635.59
2022-08-11T11:35:24.919Z,100636.59
2022-08-11T11:37:56.110Z,100637.31
2022-08-11T11:40:33.403Z,100636.28
2022-08-11T11:43:01.585Z,100630.66
2022-08-11T11:45:29.633Z,100623.03
2022-08-11T11:47:59.842Z,100622.91
2022-08-11T11:50:32.888Z,100622.19
2022-08-11T11:53:03.913Z,100621.63
2022-08-11T11:55:32.889Z,100618.78
2022-08-11T11:58:02.826Z,100619.22
2022-08-11T12:00:33.260Z,100617.81
2022-08-11T12:03:05.023Z,100605.44
2022-08-11T12:05:36.475Z,100602.72
2022-08-11T12:08:13.056Z,100599.94
2022-08-11T12:10:45.216Z,100590.97
2022-08-11T12:13:14.613Z,100600.00
2022-08-11T12:16:31.050Z,100592.00
2022-08-11T12:18:34.790Z,100597.81
2022-08-11T12:21:05.283Z,100602.22
2022-08-11T12:23:35.467Z,100604.69
2022-08-11T12:26:27.304Z,100599.59
2022-08-11T12:28:55.941Z,100595.72
2022-08-11T12:31:23.763Z,100595.84
2022-08-11T12:33:51.422Z,100593.31
2022-08-11T12:36:21.411Z,100593.31
2022-08-11T12:38:51.927Z,100586.53
2022-08-11T12:41:21.557Z,100588.09
2022-08-11T12:43:56.316Z,100592.50
2022-08-11T12:46:31.630Z,100587.25
2022-08-11T12:49:06.831Z,100583.59
2022-08-11T12:52:11.654Z,100586.03
2022-08-11T12:54:33.969Z,100587.81
2022-08-11T12:57:05.843Z,100589.03
2022-08-11T12:59:35.200Z,100585.22
2022-08-11T13:02:03.350Z,100579.47
2022-08-11T13:04:32.326Z,100586.16
2022-08-11T13:07:01.628Z,100583.97
2022-08-11T13:09:31.220Z,100584.56
2022-08-11T13:11:59.170Z,100590.63
2022-08-11T13:14:28.128Z,100590.81
2022-08-11T13:16:56.003Z,100584.09
2022-08-11T13:19:25.268Z,100588.34
2022-08-11T13:21:53.545Z,100585.84
2022-08-11T13:24:23.454Z,100578.66
2022-08-11T13:26:52.245Z,100583.50
2022-08-11T13:29:21.436Z,100588.31
2022-08-11T13:31:50.826Z,100581.59
2022-08-11T13:34:20.582Z,100585.00
2022-08-11T13:36:50.574Z,100586.84
2022-08-11T13:39:18.696Z,100585.72
2022-08-11T13:41:49.575Z,100591.53
2022-08-11T13:44:23.233Z,100585.69
2022-08-11T13:46:56.373Z,100586.84
2022-08-11T13:49:25.125Z,100584.72
2022-08-11T13:51:54.280Z,100583.59
2022-08-11T13:54:24.645Z,100594.88
2022-08-11T13:56:56.504Z,100590.69
2022-08-11T13:59:29.998Z,100597.19
2022-08-11T14:02:20.287Z,100595.47
2022-08-11T14:04:54.007Z,100585.88
2022-08-11T14:07:24.683Z,100589.69
2022-08-11T14:09:57.776Z,100594.38
2022-08-11T14:12:31.445Z,100586.19
2022-08-11T14:15:08.407Z,100586.66
2022-08-11T14:17:48.341Z,100584.69
2022-08-11T14:20:38.754Z,100590.75
2022-08-11T14:23:13.115Z,100595.28
2022-08-11T14:26:00.365Z,100585.56
2022-08-11T14:28:37.347Z,100588.66
2022-08-11T14:31:08.616Z,100582.31
2022-08-11T14:33:59.949Z,100585.53
2022-08-11T14:36:30.969Z,100587.41
2022-08-11T14:39:01.225Z,100594.50
2022-08-11T14:41:29.475Z,100583.06
2022-08-11T14:44:12.884Z,100587.28
2022-08-11T14:46:43.525Z,100594.50
2022-08-11T14:49:12.828Z,100598.28
2022-08-11T14:51:46.458Z,100590.91
2022-08-11T14:54:16.087Z,100583.00
2022-08-11T14:56:44.468Z,100587.97
2022-08-11T14:59:14.046Z,100579.19
2022-08-11T15:01:42.359Z,100568.03
2022-08-11T15:04:35.030Z,100574.09
2022-08-11T15:06:58.651Z,100584.81
2022-08-11T15:09:26.863Z,100581.19
2022-08-11T15:11:54.974Z,100583.69
2022-08-11T15:14:24.969Z,100597.44
2022-08-11T15:16:53.066Z,100597.97
2022-08-11T15:19:21.581Z,100597.75
2022-08-11T15:21:50.306Z,100596.47
2022-08-11T15:24:18.044Z,100603.53
2022-08-11T15:26:49.519Z,100600.00
2022-08-11T15:29:23.618Z,100598.16
2022-08-11T15:31:52.979Z,100604.38
2022-08-11T15:34:25.715Z,100601.53
2022-08-11T15:36:58.725Z,100594.06
2022-08-11T15:39:32.679Z,100602.00
2022-08-11T15:42:03.289Z,100596.44
2022-08-11T15:45:01.132Z,100595.34
2022-08-11T15:47:29.028Z,100591.97
2022-08-11T15:50:11.701Z,100582.31
2022-08-11T15:52:48.269Z,100582.63
2022-08-11T15:55:17.269Z,100577.38
2022-08-11T15:57:49.144Z,100578.38
2022-08-11T16:00:17.833Z,100574.84
2022-08-11T16:02:57.052Z,100569.63
2022-08-11T16:05:45.542Z,100569.91
2022-08-11T16:08:17.072Z,100584.56
2022-08-11T16:10:54.455Z,100582.75
2022-08-11T16:13:25.494Z,100582.88
2022-08-11T16:15:55.898Z,100584.72
2022-08-11T16:18:30.240Z,100585.69
2022-08-11T16:20:58.688Z,100584.56
2022-08-11T16:23:27.054Z,100576.41
2022-08-11T16:27:02.759Z,100576.28
2022-08-11T16:28:46.756Z,100574.28
2022-08-11T16:31:15.602Z,100570.59
2022-08-11T16:33:48.954Z,100582.03
2022-08-11T16:36:23.544Z,100581.22
2022-08-11T16:38:52.357Z,100582.88
2022-08-11T16:41:22.988Z,100580.50
2022-08-11T16:43:51.671Z,100593.47
2022-08-11T16:46:22.044Z,100592.06
2022-08-11T16:48:52.258Z,100587.09
2022-08-11T16:51:21.145Z,100582.72
2022-08-11T16:54:04.854Z,100584.81
2022-08-11T16:56:37.595Z,100589.50
2022-08-11T16:59:09.455Z,100596.81
2022-08-11T17:01:38.727Z,100600.50
2022-08-11T17:04:17.491Z,100605.31
2022-08-11T17:06:49.552Z,100610.09
2022-08-11T17:09:23.115Z,100614.19
2022-08-11T17:11:56.379Z,100618.13
2022-08-11T17:14:35.840Z,100624.03
2022-08-11T17:17:07.546Z,100622.63
2022-08-11T17:20:40.370Z,100615.97
2022-08-11T17:22:30.739Z,100616.38
2022-08-11T17:25:00.174Z,100625.09
2022-08-11T17:27:30.188Z,100624.78
2022-08-11T17:30:01.664Z,100622.53
2022-08-11T17:32:33.195Z,100624.72
2022-08-11T17:35:25.984Z,100625.28
2022-08-11T17:37:56.036Z,100625.41
2022-08-11T17:40:24.373Z,100623.84
2022-08-11T17:42:53.965Z,100623.00
2022-08-11T17:45:23.826Z,100618.72
2022-08-11T17:47:51.600Z,100622.00
2022-08-11T17:50:19.887Z,100632.59
2022-08-11T17:52:49.584Z,100632.59
2022-08-11T17:55:18.030Z,100637.13
2022-08-11T17:58:06.575Z,100651.91
2022-08-11T18:00:34.686Z,100653.50
2022-08-11T18:03:05.308Z,100658.59
2022-08-11T18:05:35.880Z,100651.66
2022-08-11T18:08:08.240Z,100655.19
2022-08-11T18:10:40.144Z,100649.97
2022-08-11T18:13:08.944Z,100656.31
2022-08-11T18:15:40.210Z,100649.97
2022-08-11T18:18:17.677Z,100659.59
2022-08-11T18:20:47.057Z,100660.44
2022-08-11T18:23:19.457Z,100663.94
2022-08-11T18:25:48.724Z,100666.03
2022-08-11T18:28:24.427Z,100671.16
2022-08-11T18:31:03.683Z,100672.13
2022-08-11T18:34:03.806Z,100668.47
2022-08-11T18:36:31.778Z,100662.13
2022-08-11T18:39:03.237Z,100657.75
2022-08-11T18:41:33.684Z,100667.47
2022-08-11T18:44:06.071Z,100665.66
2022-08-11T18:46:37.136Z,100666.13
2022-08-11T18:49:14.950Z,100671.38
2022-08-11T18:51:48.035Z,100671.25
2022-08-11T18:54:20.727Z,100670.97
2022-08-11T18:56:49.696Z,100671.09
2022-08-11T18:59:20.396Z,100666.00
2022-08-11T19:01:49.206Z,100666.00
2022-08-11T19:04:19.958Z,100665.28
2022-08-11T19:06:52.399Z,100670.66
2022-08-11T19:09:22.110Z,100673.72
2022-08-11T19:11:49.983Z,100668.72
2022-08-11T19:14:21.011Z,100669.72
2022-08-11T19:16:51.173Z,100675.91
2022-08-11T19:19:20.493Z,100669.28
2022-08-11T19:21:51.079Z,100670.69
2022-08-11T19:24:19.771Z,100671.69
2022-08-11T19:26:53.376Z,100677.16
2022-08-11T19:30:04.718Z,100678.28
2022-08-11T19:32:12.279Z,100676.72
2022-08-11T19:34:40.940Z,100682.22
2022-08-11T19:37:10.038Z,100675.28
2022-08-11T19:39:38.709Z,100679.81
2022-08-11T19:42:09.608Z,100682.22
2022-08-11T19:44:38.291Z,100686.13
2022-08-11T19:47:07.932Z,100682.75
2022-08-11T19:49:36.906Z,100679.88
2022-08-11T19:52:05.976Z,100681.09
2022-08-11T19:54:36.043Z,100678.09
2022-08-11T19:57:05.299Z,100679.63
2022-08-11T19:59:34.837Z,100677.56
2022-08-11T20:02:14.357Z,100661.91
2022-08-11T20:04:42.596Z,100663.97
2022-08-11T20:07:13.847Z,100662.69
2022-08-11T20:10:05.951Z,100662.09
2022-08-11T20:12:34.140Z,100664.53
2022-08-11T20:15:06.546Z,100661.25
2022-08-11T20:17:38.002Z,100661.19
2022-08-11T20:20:07.691Z,100658.75
2022-08-11T20:22:35.437Z,100660.69
2022-08-11T20:25:05.380Z,100662.66
2022-08-11T20:27:36.554Z,100665.72
2022-08-11T20:30:07.055Z,100660.75
2022-08-11T20:32:36.160Z,100656.22
2022-08-11T20:35:05.863Z,100661.69
2022-08-11T20:37:35.507Z,100660.25
2022-08-11T20:40:04.506Z,100665.88
2022-08-11T20:42:34.712Z,100652.03
2022-08-11T20:45:03.873Z,100669.50
2022-08-11T20:47:59.475Z,100664.53
2022-08-11T20:50:26.210Z,100667.47
2022-08-11T20:52:56.793Z,100662.25
2022-08-11T20:55:46.382Z,100660.69
2022-08-11T20:58:15.653Z,100657.66
2022-08-11T21:00:48.966Z,100656.94
2022-08-11T21:06:11.032Z,100670.69
2022-08-11T21:08:41.809Z,100668.00
2022-08-11T21:11:12.727Z,100668.00
2022-08-11T21:13:43.448Z,100673.47
2022-08-11T21:16:25.217Z,100680.88
2022-08-11T21:19:02.954Z,100682.72
2022-08-11T21:21:45.781Z,100682.72
2022-08-11T21:24:18.563Z,100691.97
2022-08-11T21:26:51.964Z,100688.44
2022-08-11T21:29:21.201Z,100678.69
2022-08-11T21:31:50.138Z,100680.41
2022-08-11T21:34:21.412Z,100680.41
2022-08-11T21:36:50.482Z,100672.78
2022-08-11T21:39:22.893Z,100678.22
2022-08-11T21:41:54.809Z,100685.59
2022-08-11T21:44:23.461Z,100680.13
2022-08-11T21:46:52.566Z,100681.22
2022-08-11T21:49:24.360Z,100687.06
2022-08-11T21:51:52.153Z,100676.75
2022-08-11T21:54:21.077Z,100681.81
2022-08-11T21:56:50.472Z,100686.06
2022-08-11T21:59:23.684Z,100681.72
2022-08-11T22:01:53.463Z,100687.19
2022-08-11T22:04:23.362Z,100679.88
2022-08-11T22:06:52.450Z,100685.34
2022-08-11T22:09:20.668Z,100681.09
2022-08-11T22:11:48.617Z,100683.88
2022-08-11T22:14:37.092Z,100684.13
2022-08-11T22:17:04.754Z,100679.38
2022-08-11T22:19:35.948Z,100686.56
2022-08-11T22:22:06.911Z,100683.88
2022-08-11T22:24:36.537Z,100689.34
2022-08-11T22:27:05.515Z,100686.66
2022-08-11T22:32:19.657Z,100686.81
2022-08-11T22:34:53.370Z,100688.50
2022-08-11T22:37:27.426Z,100688.50
2022-08-11T22:40:02.789Z,100693.09
2022-08-11T22:42:33.277Z,100694.19
2022-08-11T22:45:01.786Z,100689.69
2022-08-11T22:47:36.403Z,100695.91
2022-08-11T22:50:12.446Z,100698.91
2022-08-11T22:52:41.596Z,100696.38
2022-08-11T22:55:10.280Z,100692.47
2022-08-11T22:57:39.371Z,100700.47
2022-08-11T23:00:08.330Z,100687.59
2022-08-11T23:02:37.745Z,100700.34
2022-08-11T23:05:09.445Z,100699.72
2022-08-11T23:07:51.242Z,100702.75
2022-08-11T23:10:20.653Z,100703.72
2022-08-11T23:12:49.250Z,100694.19
2022-08-11T23:15:17.674Z,100695.03
2022-08-11T23:17:45.822Z,100697.84
2022-08-11T23:20:23.199Z,100692.97
2022-08-11T23:22:53.674Z,100701.19
2022-08-11T23:25:22.048Z,100704.09
2022-08-11T23:27:49.987Z,100701.66
2022-08-11T23:30:19.073Z,100705.53
2022-08-11T23:32:49.124Z,100701.25
2022-08-11T23:35:40.562Z,100705.00
2022-08-11T23:38:07.269Z,100705.25
2022-08-11T23:40:35.200Z,100704.38
2022-08-11T23:43:03.595Z,100715.19
2022-08-11T23:45:31.532Z,100709.44
2022-08-11T23:48:01.799Z,100708.59
2022-08-11T23:50:31.959Z,100706.91
2022-08-11T23:53:00.328Z,100710.53
2022-08-11T23:55:28.383Z,100709.03
2022-08-11T23:57:56.608Z,100711.84
